This is the latest recevied weather packets stored in our database for station/object PD3EM. If no packets are shown the sender has not sent any weather packets the latest 10 day(s).
| Time | Temp. | Humidity | Pressure | Rain* | Wind** | Luminosity | Snow |
|---|---|---|---|---|---|---|---|
| 1777579136 | 16.11° C | 39% | 1026.7 hPa | 0 mm | - | 0 W/m² | - |
| 1777576170 | 16.67° C | 38% | 1026.2 hPa | 0 mm | - | 2 W/m² | - |
| 1777571921 | 18.89° C | 32% | 1026.1 hPa | 0 mm | - | 28 W/m² | - |
| 1777571320 | 18.89° C | 32% | 1025.8 hPa | 0 mm | - | 30 W/m² | - |
| 1777567713 | 19.44° C | 31% | 1026.2 hPa | 0 mm | - | 181 W/m² | - |
| 1777567111 | 19.44° C | 30% | 1026.1 hPa | 0 mm | - | 202 W/m² | - |
| 1777565909 | 19.44° C | 30% | 1026.1 hPa | 0 mm | - | 239 W/m² | - |
| 1777560498 | 19.44° C | 30% | 1026.7 hPa | 0 mm | - | 424 W/m² | - |
| 1777558694 | 19.44° C | 30% | 1026.8 hPa | 0 mm | - | 476 W/m² | - |
| 1777557491 | 18.89° C | 32% | 1027.2 hPa | 0 mm | - | 506 W/m² | - |
| 1777548473 | 17.78° C | 33% | 1028.5 hPa | 0 mm | - | 625 W/m² | - |
| 1777545487 | 17.78° C | 33% | 1029.2 hPa | 0 mm | - | 604 W/m² | - |
| 1777541860 | 16.67° C | 36% | 1029 hPa | 0 mm | - | 557 W/m² | - |
| 1777538894 | 15.56° C | 39% | 1029.6 hPa | 0 mm | - | 474 W/m² | - |
| 1777534685 | 13.33° C | 44% | 1030.3 hPa | 0 mm | - | 307 W/m² | - |
| 1777523823 | 8.33° C | 60% | 1029.3 hPa | 0 mm | - | 11 W/m² | - |
| 1777516648 | 8.89° C | 57% | 1029.1 hPa | 0 mm | - | 0 W/m² | - |
| 1777514203 | 9.44° C | 55% | 1029.2 hPa | 0 mm | - | 0 W/m² | - |
| 1777511197 | 10.56° C | 53% | 1029.3 hPa | 0 mm | - | 0 W/m² | - |
| 1777509995 | 10.56° C | 52% | 1029 hPa | 0 mm | - | 0 W/m² | - |
| 1777508191 | 11.11° C | 50% | 1028.9 hPa | 0 mm | - | 0 W/m² | - |
| 1777504584 | 11.67° C | 49% | 1028.8 hPa | 0 mm | - | 0 W/m² | - |
| 1777503983 | 11.67° C | 49% | 1028.8 hPa | 0 mm | - | 0 W/m² | - |
| 1777501598 | 11.67° C | 50% | 1028.6 hPa | 0 mm | - | 0 W/m² | - |
| 1777500375 | 11.67° C | 51% | 1028.6 hPa | 0 mm | - | 0 W/m² | - |
* Rain latest hour (hover to see other rain measurements)
** Current wind speed in m/s (hover to see current wind gust speed)